Time;durP1;ratioP1;P1;durP2;ratioP2;P2;SDS_P1;SDS_P2;PMS_P1;PMS_P2;Temp;Humidity;BMP_temperature;BMP_pressure;BME280_temperature;BME280_humidity;BME280_pressure;Samples;Min_cycle;Max_cycle;Signal;HPM_P1;HPM_P2
2023/09/12 00:28:43;;;;;;;53.03;39.60;;;;;;;;;;5454327;23;20131;-76
2023/09/12 00:31:09;;;;;;;52.13;39.55;;;;;;;;;;4969987;28;20046;-75
2023/09/12 00:36:37;;;;;;;59.08;42.58;;;;;;;;;;4902554;23;19937;-72
2023/09/12 00:39:03;;;;;;;56.03;41.22;;;;;;;;;;4887927;29;20234;-72
2023/09/12 00:41:29;;;;;;;58.58;41.05;;;;;;;;;;4884372;29;20048;-73
2023/09/12 00:43:56;;;;;;;62.92;42.08;;;;;;;;;;4882813;29;20052;-73
2023/09/12 00:46:22;;;;;;;55.05;42.05;;;;;;;;;;4902195;29;20515;-73
2023/09/12 00:48:49;;;;;;;52.70;41.38;;;;;;;;;;4884916;29;21979;-73
2023/09/12 00:51:16;;;;;;;52.03;39.53;;;;;;;;;;4862917;29;20054;-73
2023/09/12 00:53:42;;;;;;;52.58;39.58;;;;;;;;;;4884947;29;20047;-73
2023/09/12 00:56:08;;;;;;;54.33;40.00;;;;;;;;;;4885205;29;20110;-73
2023/09/12 00:58:34;;;;;;;48.97;38.40;;;;;;;;;;4885107;29;20051;-73
2023/09/12 01:01:00;;;;;;;55.58;39.30;;;;;;;;;;4868816;29;20139;-73
2023/09/12 01:03:27;;;;;;;50.42;37.60;;;;;;;;;;4882764;29;20110;-73
2023/09/12 01:05:53;;;;;;;50.78;38.35;;;;;;;;;;4868155;29;20052;-73
2023/09/12 01:08:20;;;;;;;51.90;37.72;;;;;;;;;;4882220;29;20079;-73
2023/09/12 01:10:48;;;;;;;49.03;37.97;;;;;;;;;;4886389;29;20059;-73
2023/09/12 01:13:14;;;;;;;50.55;39.55;;;;;;;;;;4881025;29;20107;-73
2023/09/12 01:15:41;;;;;;;49.72;36.80;;;;;;;;;;4886890;29;20052;-72
2023/09/12 01:18:08;;;;;;;48.75;36.15;;;;;;;;;;4887050;29;20131;-73
2023/09/12 01:20:35;;;;;;;47.05;35.75;;;;;;;;;;4879796;29;20052;-72
2023/09/12 01:23:20;;;;;;;44.50;36.03;;;;;;;;;;4891978;29;20048;-72
2023/09/12 01:25:46;;;;;;;44.50;36.17;;;;;;;;;;4883906;29;20044;-72
2023/09/12 01:28:16;;;;;;;48.10;38.08;;;;;;;;;;4869035;29;20448;-72
2023/09/12 01:30:42;;;;;;;47.30;36.30;;;;;;;;;;4886624;29;20063;-72
2023/09/12 01:33:09;;;;;;;50.90;38.22;;;;;;;;;;4886687;29;20140;-72
2023/09/12 01:35:35;;;;;;;46.83;36.67;;;;;;;;;;4876893;29;20069;-72
2023/09/12 01:38:01;;;;;;;51.60;37.78;;;;;;;;;;4883513;29;20382;-72
2023/09/12 01:40:43;;;;;;;48.80;36.97;;;;;;;;;;4878201;29;20056;-72
2023/09/12 01:43:09;;;;;;;50.80;37.65;;;;;;;;;;4876530;29;20071;-72
2023/09/12 01:45:36;;;;;;;48.83;38.22;;;;;;;;;;4869917;29;20107;-72
2023/09/12 01:48:03;;;;;;;52.25;38.35;;;;;;;;;;4870254;29;20054;-72
2023/09/12 01:50:30;;;;;;;47.05;37.85;;;;;;;;;;4879831;29;20080;-73
2023/09/12 01:52:56;;;;;;;48.70;37.63;;;;;;;;;;4869343;29;20040;-73
2023/09/12 01:55:23;;;;;;;48.95;37.13;;;;;;;;;;4869163;29;20067;-73
2023/09/12 01:57:49;;;;;;;50.47;38.10;;;;;;;;;;4880765;29;21066;-73
2023/09/12 02:00:15;;;;;;;49.70;38.03;;;;;;;;;;4851422;29;20060;-72
2023/09/12 02:02:41;;;;;;;51.28;38.88;;;;;;;;;;4871295;29;20045;-73
2023/09/12 02:05:18;;;;;;;53.60;37.25;;;;;;;;;;4866837;29;20147;-73
2023/09/12 02:07:45;;;;;;;50.45;37.80;;;;;;;;;;4866597;29;20058;-73
2023/09/12 02:10:11;;;;;;;52.17;38.03;;;;;;;;;;4869021;29;20140;-73
2023/09/12 02:12:37;;;;;;;53.38;39.30;;;;;;;;;;4863524;29;20052;-72
2023/09/12 02:15:04;;;;;;;47.00;37.70;;;;;;;;;;4864092;29;20127;-73
2023/09/12 02:17:30;;;;;;;61.75;40.30;;;;;;;;;;4847207;29;20040;-72
2023/09/12 02:19:56;;;;;;;51.17;39.53;;;;;;;;;;4869036;29;20040;-72
2023/09/12 02:22:22;;;;;;;50.97;38.83;;;;;;;;;;4869373;29;20670;-73
2023/09/12 02:24:48;;;;;;;55.17;41.55;;;;;;;;;;4866145;29;20044;-72
2023/09/12 02:27:14;;;;;;;56.45;41.17;;;;;;;;;;4866945;29;20056;-73
2023/09/12 02:29:40;;;;;;;54.45;39.63;;;;;;;;;;4866678;29;20048;-72
2023/09/12 02:32:06;;;;;;;48.83;38.53;;;;;;;;;;4865212;29;20041;-72
2023/09/12 02:34:33;;;;;;;59.80;39.80;;;;;;;;;;4850000;29;20937;-72
2023/09/12 02:36:59;;;;;;;56.88;41.25;;;;;;;;;;4867668;29;20064;-72
2023/09/12 02:39:25;;;;;;;54.22;40.05;;;;;;;;;;4865580;29;20051;-72
2023/09/12 02:41:51;;;;;;;60.47;41.42;;;;;;;;;;4862597;29;20192;-72
2023/09/12 02:44:17;;;;;;;64.95;43.00;;;;;;;;;;4864290;29;20076;-73
2023/09/12 02:46:43;;;;;;;61.20;40.38;;;;;;;;;;4866007;29;20064;-72
2023/09/12 02:49:09;;;;;;;61.90;40.45;;;;;;;;;;4879519;29;20040;-73
2023/09/12 02:51:39;;;;;;;51.15;36.85;;;;;;;;;;4845326;29;20048;-72
2023/09/12 02:54:05;;;;;;;51.45;38.28;;;;;;;;;;4851236;29;20048;-73
2023/09/12 02:56:31;;;;;;;50.40;35.78;;;;;;;;;;4865963;29;20049;-73
2023/09/12 02:58:57;;;;;;;50.38;36.55;;;;;;;;;;4861567;29;20048;-73
2023/09/12 03:01:27;;;;;;;49.72;37.92;;;;;;;;;;4868185;29;20666;-73
2023/09/12 03:03:53;;;;;;;50.97;38.65;;;;;;;;;;4883224;29;20061;-73
2023/09/12 03:06:20;;;;;;;47.17;36.67;;;;;;;;;;4865770;29;20052;-72
2023/09/12 03:08:46;;;;;;;53.20;38.35;;;;;;;;;;4864910;29;20052;-72
2023/09/12 03:11:12;;;;;;;56.25;39.95;;;;;;;;;;4866552;29;20053;-73
2023/09/12 03:13:40;;;;;;;60.22;41.78;;;;;;;;;;4866933;29;20880;-72
2023/09/12 03:16:10;;;;;;;55.80;40.38;;;;;;;;;;4865210;29;20059;-72
2023/09/12 03:18:36;;;;;;;68.38;45.92;;;;;;;;;;4867437;29;20056;-73
2023/09/12 03:21:02;;;;;;;68.80;44.90;;;;;;;;;;4853972;29;20104;-72
2023/09/12 03:23:28;;;;;;;72.93;45.55;;;;;;;;;;4883428;29;20048;-72
2023/09/12 03:25:55;;;;;;;68.13;44.95;;;;;;;;;;4871233;29;20079;-73
2023/09/12 03:28:21;;;;;;;69.88;44.70;;;;;;;;;;4867773;29;20952;-72
2023/09/12 03:30:47;;;;;;;69.05;47.03;;;;;;;;;;4869240;29;20501;-72
2023/09/12 03:33:13;;;;;;;63.00;44.80;;;;;;;;;;4868016;29;20059;-72
2023/09/12 03:35:39;;;;;;;69.00;45.85;;;;;;;;;;4859882;29;20111;-73
2023/09/12 03:38:05;;;;;;;66.95;45.92;;;;;;;;;;4866690;29;20056;-73
2023/09/12 03:40:32;;;;;;;70.05;46.50;;;;;;;;;;4867129;29;20548;-73
2023/09/12 03:42:58;;;;;;;73.15;46.72;;;;;;;;;;4867083;29;20116;-73
2023/09/12 03:45:24;;;;;;;71.85;47.42;;;;;;;;;;4867263;29;20104;-73
2023/09/12 03:47:52;;;;;;;65.30;45.03;;;;;;;;;;4863998;29;20048;-73
2023/09/12 03:50:18;;;;;;;64.10;45.00;;;;;;;;;;4849150;29;20040;-73
2023/09/12 03:52:44;;;;;;;70.05;46.42;;;;;;;;;;4864934;29;20153;-73
2023/09/12 03:55:10;;;;;;;67.28;44.97;;;;;;;;;;4861968;29;20501;-73
2023/09/12 03:57:36;;;;;;;71.10;46.13;;;;;;;;;;4850090;29;20040;-73
2023/09/12 04:00:05;;;;;;;73.25;47.05;;;;;;;;;;4866042;29;20045;-73
2023/09/12 04:02:31;;;;;;;70.65;45.75;;;;;;;;;;4863842;29;20057;-73
2023/09/12 04:04:59;;;;;;;69.35;45.40;;;;;;;;;;4860044;29;20061;-72
2023/09/12 04:07:25;;;;;;;69.32;47.63;;;;;;;;;;4863018;29;20045;-73
2023/09/12 04:09:51;;;;;;;72.03;45.63;;;;;;;;;;4867182;29;20108;-73
2023/09/12 04:12:17;;;;;;;71.05;46.58;;;;;;;;;;4860712;29;20067;-72
2023/09/12 04:14:43;;;;;;;75.32;46.30;;;;;;;;;;4866179;29;20113;-73
2023/09/12 04:17:09;;;;;;;62.67;43.70;;;;;;;;;;4868577;29;20049;-72
2023/09/12 04:19:36;;;;;;;68.57;44.63;;;;;;;;;;4851548;29;20052;-72
2023/09/12 04:22:04;;;;;;;67.43;44.50;;;;;;;;;;4868354;29;20048;-72
2023/09/12 04:24:30;;;;;;;66.20;44.38;;;;;;;;;;4863264;29;20059;-73
2023/09/12 04:26:56;;;;;;;59.28;40.88;;;;;;;;;;4864961;29;20460;-72
2023/09/12 04:29:22;;;;;;;63.40;42.90;;;;;;;;;;4868311;29;20044;-73
2023/09/12 04:31:48;;;;;;;62.03;41.38;;;;;;;;;;4866412;29;20108;-73
2023/09/12 04:34:14;;;;;;;65.55;41.03;;;;;;;;;;4859670;29;20044;-72
2023/09/12 04:36:40;;;;;;;63.00;40.10;;;;;;;;;;4841509;29;20053;-73
2023/09/12 04:39:06;;;;;;;66.35;41.72;;;;;;;;;;4859801;29;20139;-73
2023/09/12 04:41:33;;;;;;;63.75;41.83;;;;;;;;;;4858881;29;20409;-73
2023/09/12 04:44:00;;;;;;;63.20;40.45;;;;;;;;;;4839931;29;20052;-73
2023/09/12 04:46:26;;;;;;;60.40;40.33;;;;;;;;;;4861780;29;20071;-73
2023/09/12 04:48:52;;;;;;;60.03;40.60;;;;;;;;;;4874076;29;20088;-73
2023/09/12 04:51:18;;;;;;;60.60;39.72;;;;;;;;;;4829405;29;20056;-73
2023/09/12 04:53:44;;;;;;;65.38;42.10;;;;;;;;;;4866111;29;20041;-73
2023/09/12 04:56:11;;;;;;;56.03;38.92;;;;;;;;;;4863604;29;20045;-73
2023/09/12 04:58:37;;;;;;;63.13;39.45;;;;;;;;;;4863303;29;20131;-73
2023/09/12 05:01:03;;;;;;;56.30;39.17;;;;;;;;;;4844557;29;20083;-74
2023/09/12 05:03:29;;;;;;;60.70;38.28;;;;;;;;;;4862217;29;20047;-73
2023/09/12 05:05:55;;;;;;;60.80;38.20;;;;;;;;;;4867898;29;20053;-73
2023/09/12 05:08:21;;;;;;;57.53;35.78;;;;;;;;;;4844996;29;20109;-73
2023/09/12 05:10:47;;;;;;;54.08;36.78;;;;;;;;;;4853081;29;20048;-73
2023/09/12 05:13:14;;;;;;;58.45;38.15;;;;;;;;;;4871017;29;20076;-73
2023/09/12 05:15:41;;;;;;;56.88;36.65;;;;;;;;;;4871685;29;20049;-73
2023/09/12 05:18:07;;;;;;;58.97;37.50;;;;;;;;;;4870332;29;20052;-73
2023/09/12 05:20:34;;;;;;;54.80;37.53;;;;;;;;;;4867144;29;20239;-73
2023/09/12 05:23:00;;;;;;;56.47;37.40;;;;;;;;;;4855630;29;20080;-72
2023/09/12 05:25:29;;;;;;;51.75;36.38;;;;;;;;;;4868126;29;20045;-73
2023/09/12 05:27:56;;;;;;;57.67;38.53;;;;;;;;;;4871947;29;20052;-74
2023/09/12 05:30:22;;;;;;;57.30;36.55;;;;;;;;;;4865270;29;20057;-73
2023/09/12 05:32:48;;;;;;;54.28;35.03;;;;;;;;;;4840750;29;20103;-74
2023/09/12 05:35:14;;;;;;;58.40;36.30;;;;;;;;;;4870711;29;20052;-72
2023/09/12 05:37:40;;;;;;;62.22;34.10;;;;;;;;;;4866751;29;20076;-72
2023/09/12 05:40:07;;;;;;;50.22;33.78;;;;;;;;;;4873004;29;20049;-69
2023/09/12 05:42:33;;;;;;;50.05;33.35;;;;;;;;;;4871694;29;20045;-69
2023/09/12 05:44:59;;;;;;;53.40;34.45;;;;;;;;;;4852406;29;20119;-68
2023/09/12 05:47:25;;;;;;;56.42;34.97;;;;;;;;;;4873892;29;20413;-69
2023/09/12 05:49:51;;;;;;;53.40;34.67;;;;;;;;;;4864920;29;21967;-69
2023/09/12 05:52:17;;;;;;;82.00;38.22;;;;;;;;;;4869434;29;20053;-69
2023/09/12 05:54:43;;;;;;;231.05;38.03;;;;;;;;;;4873727;29;20044;-69
2023/09/12 05:57:10;;;;;;;125.22;37.65;;;;;;;;;;4870337;29;20101;-69
2023/09/12 05:59:37;;;;;;;257.02;37.17;;;;;;;;;;4869093;29;20048;-69
2023/09/12 06:02:04;;;;;;;497.13;48.65;;;;;;;;;;4873281;29;20047;-70
2023/09/12 06:04:30;;;;;;;123.75;39.30;;;;;;;;;;4871603;29;20048;-69
2023/09/12 06:06:56;;;;;;;427.95;45.13;;;;;;;;;;4870117;29;20044;-69
2023/09/12 06:09:22;;;;;;;123.07;40.95;;;;;;;;;;4873522;29;20051;-70
2023/09/12 06:11:48;;;;;;;280.88;43.13;;;;;;;;;;4870782;29;20091;-69
2023/09/12 06:14:14;;;;;;;355.55;43.70;;;;;;;;;;4872725;29;20139;-69
2023/09/12 06:16:41;;;;;;;490.20;48.85;;;;;;;;;;4871121;29;20040;-69
2023/09/12 06:19:07;;;;;;;267.95;41.90;;;;;;;;;;4874341;29;20052;-69
2023/09/12 06:21:34;;;;;;;277.35;45.80;;;;;;;;;;4875440;29;20409;-83
2023/09/12 06:24:17;;;;;;;350.73;41.97;;;;;;;;;;4857991;29;20052;-69
2023/09/12 06:26:43;;;;;;;298.88;40.30;;;;;;;;;;4873395;29;22143;-69
2023/09/12 06:29:09;;;;;;;280.50;41.20;;;;;;;;;;4875228;29;20060;-69
2023/09/12 06:31:35;;;;;;;244.43;42.33;;;;;;;;;;4875202;29;20044;-69
2023/09/12 06:34:02;;;;;;;179.60;38.42;;;;;;;;;;4872327;29;20056;-71
2023/09/12 06:36:29;;;;;;;133.10;36.97;;;;;;;;;;4869150;29;20513;-71
2023/09/12 06:38:59;;;;;;;187.63;38.13;;;;;;;;;;4871463;29;20041;-70
2023/09/12 06:41:31;;;;;;;104.53;35.92;;;;;;;;;;4876383;29;20073;-80
2023/09/12 06:44:02;;;;;;;154.27;37.65;;;;;;;;;;4869690;29;20059;-78
2023/09/12 06:46:28;;;;;;;60.28;35.03;;;;;;;;;;4873219;29;20136;-79
2023/09/12 06:48:55;;;;;;;100.65;37.40;;;;;;;;;;4873456;29;20126;-79
2023/09/12 06:51:23;;;;;;;55.78;35.35;;;;;;;;;;4889869;29;22979;-79
2023/09/12 06:53:51;;;;;;;101.47;36.72;;;;;;;;;;4872849;29;20092;-79
2023/09/12 06:56:17;;;;;;;77.65;36.67;;;;;;;;;;4876115;29;20049;-79
2023/09/12 06:58:43;;;;;;;98.88;37.70;;;;;;;;;;4875218;29;20752;-78
2023/09/12 07:01:09;;;;;;;68.85;37.03;;;;;;;;;;4874731;29;20108;-79
2023/09/12 07:03:35;;;;;;;80.78;38.92;;;;;;;;;;4872313;29;20140;-80
2023/09/12 07:06:02;;;;;;;74.30;36.70;;;;;;;;;;4875527;29;20066;-82
2023/09/12 07:08:30;;;;;;;75.88;39.38;;;;;;;;;;4877212;29;20104;-81
2023/09/12 07:10:57;;;;;;;61.22;37.58;;;;;;;;;;4873880;29;20044;-81
2023/09/12 07:13:23;;;;;;;104.13;40.75;;;;;;;;;;4875877;29;20044;-80
2023/09/12 07:15:52;;;;;;;89.60;42.28;;;;;;;;;;4874443;29;20239;-80
2023/09/12 07:18:20;;;;;;;67.85;41.15;;;;;;;;;;4883465;29;20069;-79
2023/09/12 07:20:46;;;;;;;68.05;41.33;;;;;;;;;;4875364;29;20053;-79
2023/09/12 07:23:12;;;;;;;63.97;42.38;;;;;;;;;;4875483;29;20044;-80
2023/09/12 07:25:40;;;;;;;72.88;43.45;;;;;;;;;;4873361;29;20500;-78
2023/09/12 07:28:06;;;;;;;62.92;41.55;;;;;;;;;;4874199;29;20120;-78
2023/09/12 07:30:32;;;;;;;111.30;42.88;;;;;;;;;;4873151;29;20056;-78
2023/09/12 07:32:58;;;;;;;73.88;41.40;;;;;;;;;;4856969;29;20048;-79
2023/09/12 07:35:24;;;;;;;81.40;43.60;;;;;;;;;;4876091;29;20149;-79
2023/09/12 07:37:51;;;;;;;68.65;41.72;;;;;;;;;;4875514;29;20063;-78
2023/09/12 07:40:17;;;;;;;67.78;42.80;;;;;;;;;;4873212;29;20040;-79
2023/09/12 07:42:43;;;;;;;79.05;42.83;;;;;;;;;;4883114;29;20044;-79
2023/09/12 07:45:09;;;;;;;66.22;40.55;;;;;;;;;;4871483;29;20485;-78
2023/09/12 07:47:36;;;;;;;63.40;39.58;;;;;;;;;;4875142;29;20072;-78
2023/09/12 07:50:02;;;;;;;66.30;37.55;;;;;;;;;;4872774;29;20040;-79
2023/09/12 07:52:29;;;;;;;94.88;39.92;;;;;;;;;;4875193;29;20127;-79
2023/09/12 07:55:02;;;;;;;65.22;38.53;;;;;;;;;;4875271;29;20155;-79
2023/09/12 07:57:29;;;;;;;66.77;39.53;;;;;;;;;;4872916;29;20048;-79
2023/09/12 07:59:55;;;;;;;78.03;42.15;;;;;;;;;;4872711;29;20404;-79
2023/09/12 08:02:21;;;;;;;68.65;40.22;;;;;;;;;;4873207;29;20052;-79
2023/09/12 08:04:47;;;;;;;69.93;40.67;;;;;;;;;;4872993;29;20091;-80
2023/09/12 08:07:13;;;;;;;73.20;40.00;;;;;;;;;;4875288;29;20048;-79
2023/09/12 08:09:53;;;;;;;70.03;42.10;;;;;;;;;;4874243;29;20504;-79
2023/09/12 08:12:20;;;;;;;72.70;43.25;;;;;;;;;;4874224;29;20087;-81
2023/09/12 08:14:46;;;;;;;72.50;42.35;;;;;;;;;;4872307;29;20096;-78
2023/09/12 08:17:12;;;;;;;70.15;42.50;;;;;;;;;;4871779;29;20155;-79
2023/09/12 08:19:39;;;;;;;62.42;38.65;;;;;;;;;;4869736;29;20072;-79
2023/09/12 08:22:10;;;;;;;64.22;42.28;;;;;;;;;;4872797;29;20044;-79
2023/09/12 08:24:36;;;;;;;68.85;40.60;;;;;;;;;;4863481;29;20045;-79
2023/09/12 08:27:03;;;;;;;63.78;41.08;;;;;;;;;;4873700;29;20044;-79
2023/09/12 08:29:29;;;;;;;63.53;41.08;;;;;;;;;;4872687;29;20037;-79
2023/09/12 08:31:55;;;;;;;68.25;42.20;;;;;;;;;;4874247;29;20080;-78
2023/09/12 08:34:22;;;;;;;63.83;39.97;;;;;;;;;;4880831;29;20052;-79
2023/09/12 08:36:48;;;;;;;65.10;40.45;;;;;;;;;;4873494;29;20061;-78
2023/09/12 08:39:15;;;;;;;71.85;39.25;;;;;;;;;;4871037;29;20059;-80
2023/09/12 08:41:42;;;;;;;62.63;38.30;;;;;;;;;;4870286;29;20795;-80
2023/09/12 08:44:09;;;;;;;68.60;41.17;;;;;;;;;;4873831;29;22102;-81
2023/09/12 08:46:37;;;;;;;71.07;42.88;;;;;;;;;;4873873;29;20052;-81
2023/09/12 08:49:04;;;;;;;67.95;41.67;;;;;;;;;;4875461;29;20068;-80
2023/09/12 08:51:32;;;;;;;63.58;39.83;;;;;;;;;;4874820;29;20052;-81
2023/09/12 08:53:59;;;;;;;67.93;41.17;;;;;;;;;;4863377;29;20075;-81
2023/09/12 08:56:25;;;;;;;59.40;39.60;;;;;;;;;;4877848;29;20059;-81
2023/09/12 08:58:51;;;;;;;59.45;38.92;;;;;;;;;;4877123;29;20580;-81
2023/09/12 09:01:18;;;;;;;63.03;39.90;;;;;;;;;;4877660;29;20048;-79
2023/09/12 09:03:45;;;;;;;60.22;37.97;;;;;;;;;;4876206;29;20457;-81
2023/09/12 09:06:11;;;;;;;59.15;38.47;;;;;;;;;;4875824;29;20385;-76
2023/09/12 09:08:38;;;;;;;63.63;38.85;;;;;;;;;;4877007;29;20149;-76
2023/09/12 09:11:06;;;;;;;59.70;38.88;;;;;;;;;;4876399;29;20048;-78
2023/09/12 09:13:32;;;;;;;61.30;38.88;;;;;;;;;;4876215;29;20203;-78
2023/09/12 09:16:18;;;;;;;60.00;39.38;;;;;;;;;;4875786;29;20732;-78
2023/09/12 09:18:51;;;;;;;56.63;37.15;;;;;;;;;;4867248;29;20196;-77
2023/09/12 09:21:25;;;;;;;61.28;41.17;;;;;;;;;;4875417;29;20090;-78
2023/09/12 09:23:51;;;;;;;61.80;39.17;;;;;;;;;;4871073;29;20505;-79
2023/09/12 09:26:17;;;;;;;61.25;38.85;;;;;;;;;;4875696;29;20041;-79
2023/09/12 09:28:43;;;;;;;60.78;37.95;;;;;;;;;;4875666;29;20040;-79
2023/09/12 09:31:13;;;;;;;53.97;38.15;;;;;;;;;;4883152;29;20528;-77
2023/09/12 09:33:40;;;;;;;55.88;38.17;;;;;;;;;;4877375;29;20411;-76
2023/09/12 09:36:07;;;;;;;60.25;40.15;;;;;;;;;;4876387;29;20084;-78
2023/09/12 09:38:36;;;;;;;81.03;39.88;;;;;;;;;;4875112;29;20266;-80
2023/09/12 09:41:09;;;;;;;59.13;37.95;;;;;;;;;;4880029;29;20112;-85
2023/09/12 09:43:36;;;;;;;57.47;37.73;;;;;;;;;;4880380;29;20048;-80
2023/09/12 09:46:02;;;;;;;64.20;37.85;;;;;;;;;;4875451;29;20308;-83
2023/09/12 09:48:31;;;;;;;54.85;36.83;;;;;;;;;;4877336;29;20049;-81
2023/09/12 09:51:01;;;;;;;60.90;36.10;;;;;;;;;;4851892;29;20056;-78
2023/09/12 09:53:28;;;;;;;56.03;36.63;;;;;;;;;;4885140;29;20044;-80
2023/09/12 09:56:08;;;;;;;53.75;35.58;;;;;;;;;;4876466;29;20076;-80
2023/09/12 09:58:34;;;;;;;51.28;35.42;;;;;;;;;;4883167;29;20113;-80
2023/09/12 10:01:03;;;;;;;50.90;36.00;;;;;;;;;;4876284;29;20505;-77
2023/09/12 10:03:29;;;;;;;50.08;35.53;;;;;;;;;;4882000;29;20068;-75
2023/09/12 10:05:57;;;;;;;49.72;33.17;;;;;;;;;;4876150;29;20052;-75
2023/09/12 10:08:24;;;;;;;50.92;34.63;;;;;;;;;;4874826;29;20397;-80
2023/09/12 10:10:51;;;;;;;50.08;35.70;;;;;;;;;;4874861;29;20595;-84
2023/09/12 10:13:18;;;;;;;48.88;34.92;;;;;;;;;;4860555;29;20055;-83
2023/09/12 10:15:45;;;;;;;48.65;36.17;;;;;;;;;;4874014;29;20037;-83
2023/09/12 10:18:14;;;;;;;49.88;36.00;;;;;;;;;;4875289;29;20132;-80
2023/09/12 10:20:53;;;;;;;45.40;34.78;;;;;;;;;;4876690;29;20123;-82
2023/09/12 10:23:42;;;;;;;49.13;36.08;;;;;;;;;;4874946;29;20099;-82
2023/09/12 10:26:11;;;;;;;47.90;34.40;;;;;;;;;;4867539;29;20702;-71
2023/09/12 10:28:38;;;;;;;47.88;34.22;;;;;;;;;;4875666;29;20067;-72
2023/09/12 10:31:05;;;;;;;47.70;36.33;;;;;;;;;;4874277;29;20052;-72
2023/09/12 10:33:31;;;;;;;45.95;31.65;;;;;;;;;;4882904;29;22017;-72
2023/09/12 10:35:58;;;;;;;43.42;31.15;;;;;;;;;;4875103;29;22067;-72
2023/09/12 10:38:26;;;;;;;45.33;32.42;;;;;;;;;;4872852;29;20040;-72
2023/09/12 10:40:54;;;;;;;53.20;32.83;;;;;;;;;;4880103;29;20400;-84
2023/09/12 10:43:21;;;;;;;43.65;31.48;;;;;;;;;;4866797;29;20056;-82
2023/09/12 10:45:47;;;;;;;40.15;29.55;;;;;;;;;;4890552;29;20592;-81
2023/09/12 10:48:13;;;;;;;45.40;32.75;;;;;;;;;;4876131;29;20131;-80
2023/09/12 10:50:39;;;;;;;40.15;30.15;;;;;;;;;;4874159;29;20048;-82
2023/09/12 10:53:10;;;;;;;41.88;30.65;;;;;;;;;;4860058;29;20048;-83
2023/09/12 10:55:36;;;;;;;39.92;32.03;;;;;;;;;;4887681;29;20438;-81
2023/09/12 10:58:08;;;;;;;40.40;30.52;;;;;;;;;;4876448;29;20052;-81
2023/09/12 11:00:34;;;;;;;43.38;32.35;;;;;;;;;;4877218;29;20088;-83
2023/09/12 11:03:19;;;;;;;44.10;30.55;;;;;;;;;;4874875;29;20045;-82
2023/09/12 11:05:55;;;;;;;42.65;32.13;;;;;;;;;;4877786;29;20441;-83
2023/09/12 11:08:22;;;;;;;40.67;31.27;;;;;;;;;;4889173;29;20136;-81
2023/09/12 11:11:07;;;;;;;42.47;32.83;;;;;;;;;;4897169;29;20072;-82
2023/09/12 11:13:41;;;;;;;42.58;31.70;;;;;;;;;;4894239;29;20052;-81
2023/09/12 11:16:11;;;;;;;46.97;32.05;;;;;;;;;;4888862;29;20508;-81
2023/09/12 11:18:57;;;;;;;42.47;31.23;;;;;;;;;;4890530;29;20045;-83
2023/09/12 11:21:32;;;;;;;44.03;30.42;;;;;;;;;;4894272;29;20052;-83
2023/09/12 11:23:58;;;;;;;38.50;29.98;;;;;;;;;;4878165;29;20104;-80
2023/09/12 11:26:24;;;;;;;42.35;31.17;;;;;;;;;;4870407;29;20071;-83
2023/09/12 11:28:51;;;;;;;39.65;30.13;;;;;;;;;;4882542;29;20884;-83
2023/09/12 11:31:29;;;;;;;37.20;27.95;;;;;;;;;;4892427;29;20098;-83
2023/09/12 11:33:55;;;;;;;35.20;28.30;;;;;;;;;;4865050;29;20063;-82
2023/09/12 11:36:22;;;;;;;34.53;26.77;;;;;;;;;;4870081;29;20064;-82
2023/09/12 11:38:51;;;;;;;33.20;25.70;;;;;;;;;;4858329;29;20040;-82
2023/09/12 11:41:56;;;;;;;37.53;27.00;;;;;;;;;;4862951;29;20052;-85
2023/09/12 11:44:22;;;;;;;32.80;25.70;;;;;;;;;;4809816;29;20052;-85
2023/09/12 11:46:49;;;;;;;32.90;24.55;;;;;;;;;;4808500;29;20139;-84
2023/09/12 11:49:16;;;;;;;33.20;24.85;;;;;;;;;;4849280;29;20045;-85
2023/09/12 11:51:52;;;;;;;32.30;24.88;;;;;;;;;;4882297;29;20044;-85
2023/09/12 11:54:19;;;;;;;31.52;24.27;;;;;;;;;;4875883;29;20045;-82
2023/09/12 11:56:47;;;;;;;33.35;26.75;;;;;;;;;;4872413;29;21365;-83
2023/09/12 11:59:13;;;;;;;30.40;25.00;;;;;;;;;;4883748;29;20120;-88
2023/09/12 12:01:39;;;;;;;29.27;23.23;;;;;;;;;;4869702;29;20048;-89
2023/09/12 12:04:06;;;;;;;29.83;23.13;;;;;;;;;;4869606;29;21078;-89
2023/09/12 12:06:35;;;;;;;31.30;24.73;;;;;;;;;;4855478;29;20041;-89
2023/09/12 12:09:01;;;;;;;29.25;23.70;;;;;;;;;;4888896;29;20127;-85
2023/09/12 12:11:31;;;;;;;31.27;23.48;;;;;;;;;;4879501;29;20610;-84
2023/09/12 12:13:57;;;;;;;33.15;23.65;;;;;;;;;;4858741;29;20051;-83
2023/09/12 12:16:26;;;;;;;28.48;22.33;;;;;;;;;;4873502;29;20045;-85
2023/09/12 12:18:55;;;;;;;28.40;21.42;;;;;;;;;;4877664;29;20051;-83
2023/09/12 12:21:21;;;;;;;32.63;20.77;;;;;;;;;;4849375;29;20064;-83
2023/09/12 12:23:47;;;;;;;30.38;22.30;;;;;;;;;;4875954;29;20048;-83
2023/09/12 12:26:13;;;;;;;25.88;19.63;;;;;;;;;;4878845;29;20084;-81
2023/09/12 12:28:41;;;;;;;25.55;19.63;;;;;;;;;;4849308;29;20053;-71
2023/09/12 12:31:07;;;;;;;26.80;21.20;;;;;;;;;;4891329;29;20104;-85
2023/09/12 12:33:33;;;;;;;26.75;20.52;;;;;;;;;;4880455;29;20048;-86
2023/09/12 12:36:11;;;;;;;26.92;19.98;;;;;;;;;;4882218;29;20148;-80
2023/09/12 12:38:38;;;;;;;26.25;17.25;;;;;;;;;;4884643;29;20112;-82
2023/09/12 12:41:04;;;;;;;21.83;16.33;;;;;;;;;;4863055;29;20080;-79
2023/09/12 12:43:31;;;;;;;24.33;18.17;;;;;;;;;;4870578;29;20519;-90
2023/09/12 12:45:58;;;;;;;22.88;18.50;;;;;;;;;;4876325;29;20037;-89
2023/09/12 12:48:34;;;;;;;22.80;18.70;;;;;;;;;;4905341;29;20039;-89
2023/09/12 12:51:00;;;;;;;9.02;4.07;;;;;;;;;;4875132;29;20053;-88
2023/09/12 12:53:39;;;;;;;3.78;2.58;;;;;;;;;;4859297;29;20075;-72
2023/09/12 12:56:05;;;;;;;6.63;1.98;;;;;;;;;;4872054;29;20921;-72
2023/09/12 12:58:31;;;;;;;8.68;2.42;;;;;;;;;;4874592;29;20119;-72
2023/09/12 13:00:58;;;;;;;7.13;1.73;;;;;;;;;;4879795;29;20088;-71
2023/09/12 13:03:24;;;;;;;3.33;1.60;;;;;;;;;;4872008;29;20049;-72
2023/09/12 13:05:50;;;;;;;29.45;3.50;;;;;;;;;;4872083;29;20428;-72
2023/09/12 13:08:16;;;;;;;15.20;3.92;;;;;;;;;;4873009;29;20044;-73
2023/09/12 13:10:45;;;;;;;67.45;7.13;;;;;;;;;;4873370;29;21128;-74
2023/09/12 13:13:11;;;;;;;44.80;6.10;;;;;;;;;;4872086;29;20084;-74
2023/09/12 13:15:37;;;;;;;32.03;5.32;;;;;;;;;;4873124;29;20041;-75
2023/09/12 13:18:04;;;;;;;16.55;3.85;;;;;;;;;;4871747;29;21618;-75
2023/09/12 13:20:30;;;;;;;31.05;7.38;;;;;;;;;;4871594;29;20040;-75
2023/09/12 13:22:56;;;;;;;24.20;6.22;;;;;;;;;;4873634;29;20087;-74
2023/09/12 13:25:23;;;;;;;488.40;33.60;;;;;;;;;;4873431;29;20869;-74
2023/09/12 13:27:49;;;;;;;524.55;38.10;;;;;;;;;;4869713;29;20053;-74
2023/09/12 13:30:15;;;;;;;132.18;13.23;;;;;;;;;;4872502;29;20048;-74
2023/09/12 13:32:41;;;;;;;185.75;18.52;;;;;;;;;;4870338;29;20053;-74
2023/09/12 13:35:08;;;;;;;390.45;28.48;;;;;;;;;;4872835;29;20051;-74
2023/09/12 13:37:34;;;;;;;29.45;6.93;;;;;;;;;;4874512;29;20056;-73
2023/09/12 13:40:00;;;;;;;74.53;11.23;;;;;;;;;;4877166;29;20089;-74
2023/09/12 13:42:30;;;;;;;28.63;8.55;;;;;;;;;;4860623;29;20555;-73
2023/09/12 13:44:56;;;;;;;19.23;8.52;;;;;;;;;;4874902;29;20044;-73
2023/09/12 13:47:23;;;;;;;22.80;8.73;;;;;;;;;;4875530;29;20101;-73
2023/09/12 13:49:51;;;;;;;21.67;7.32;;;;;;;;;;4876253;29;20036;-74
2023/09/12 13:52:17;;;;;;;22.88;7.68;;;;;;;;;;4873484;29;20060;-73
2023/09/12 13:54:44;;;;;;;15.82;6.60;;;;;;;;;;4850381;29;20051;-74
2023/09/12 13:57:10;;;;;;;18.92;7.05;;;;;;;;;;4873130;29;20041;-74
2023/09/12 13:59:36;;;;;;;13.10;5.65;;;;;;;;;;4870181;29;20702;-73
2023/09/12 14:02:02;;;;;;;13.73;5.53;;;;;;;;;;4870773;29;20587;-73
2023/09/12 14:04:28;;;;;;;12.10;5.20;;;;;;;;;;4872271;29;20044;-74
2023/09/12 14:06:54;;;;;;;11.98;5.65;;;;;;;;;;4871411;29;20055;-73
2023/09/12 14:09:21;;;;;;;8.35;4.28;;;;;;;;;;4872107;29;20068;-73
2023/09/12 14:11:47;;;;;;;5.65;4.43;;;;;;;;;;4869499;29;20053;-74
2023/09/12 14:14:14;;;;;;;8.77;4.55;;;;;;;;;;4872296;29;20052;-71
2023/09/12 14:16:40;;;;;;;5.55;4.63;;;;;;;;;;4870649;29;20128;-71
2023/09/12 14:19:06;;;;;;;4.47;4.07;;;;;;;;;;4878035;29;20053;-72
2023/09/12 14:21:32;;;;;;;4.75;4.22;;;;;;;;;;4869590;29;20044;-72
2023/09/12 14:23:58;;;;;;;7.10;4.10;;;;;;;;;;4871623;29;21934;-72
2023/09/12 14:26:24;;;;;;;17.90;4.60;;;;;;;;;;4840284;29;20159;-74
2023/09/12 14:28:50;;;;;;;8.98;4.38;;;;;;;;;;4870095;29;20055;-72
2023/09/12 14:31:17;;;;;;;6.47;4.45;;;;;;;;;;4871065;29;20068;-74
2023/09/12 14:33:43;;;;;;;6.60;4.18;;;;;;;;;;4879131;29;20048;-74
2023/09/12 14:36:09;;;;;;;6.78;4.60;;;;;;;;;;4870772;29;20063;-74
2023/09/12 14:38:36;;;;;;;8.07;6.28;;;;;;;;;;4873522;29;20131;-75
2023/09/12 14:41:02;;;;;;;6.22;5.63;;;;;;;;;;4874602;29;20045;-74
2023/09/12 14:43:29;;;;;;;9.13;5.57;;;;;;;;;;4871390;29;20048;-74
2023/09/12 14:45:55;;;;;;;8.43;6.47;;;;;;;;;;4872956;29;20135;-74
2023/09/12 14:48:22;;;;;;;8.57;6.80;;;;;;;;;;4851503;29;20056;-74
2023/09/12 14:50:51;;;;;;;8.75;5.88;;;;;;;;;;4870474;29;20049;-74